Time;durP1;ratioP1;P1;durP2;ratioP2;P2;SDS_P1;SDS_P2;PMS_P1;PMS_P2;Temp;Humidity;BMP_temperature;BMP_pressure;BME280_temperature;BME280_humidity;BME280_pressure;Samples;Min_cycle;Max_cycle;Signal;HPM_P1;HPM_P2
2022/07/05 00:01:01;;;;;;;8.05;5.30;;;;;;;;;;5029029;28;20526;-58
2022/07/05 00:03:29;;;;;;;5.25;4.68;;;;;;;;;;5029741;28;20025;-58
2022/07/05 00:05:55;;;;;;;6.88;4.80;;;;;;;;;;5030045;28;20033;-58
2022/07/05 00:08:24;;;;;;;5.95;4.30;;;;;;;;;;5029093;28;20034;-58
2022/07/05 00:10:49;;;;;;;5.23;4.70;;;;;;;;;;5029858;28;20029;-58
2022/07/05 00:13:15;;;;;;;5.93;4.70;;;;;;;;;;5030500;28;20033;-58
2022/07/05 00:15:41;;;;;;;1999.90;999.90;;;;;;;;;;5026445;28;20029;-58
2022/07/05 00:18:10;;;;;;;6.22;4.60;;;;;;;;;;5030159;28;20030;-58
2022/07/05 00:20:35;;;;;;;9.07;4.70;;;;;;;;;;5029801;28;20120;-58
2022/07/05 00:23:04;;;;;;;6.15;4.90;;;;;;;;;;5029511;28;20539;-58
2022/07/05 00:25:29;;;;;;;5.30;4.50;;;;;;;;;;5029184;28;20029;-58
2022/07/05 00:27:55;;;;;;;5.47;4.45;;;;;;;;;;5027715;28;20040;-58
2022/07/05 00:30:20;;;;;;;8.38;5.40;;;;;;;;;;5031584;28;20021;-58
2022/07/05 00:32:46;;;;;;;6.70;4.20;;;;;;;;;;5028048;28;20036;-58
2022/07/05 00:35:11;;;;;;;8.35;4.55;;;;;;;;;;5027837;28;20059;-58
2022/07/05 00:37:37;;;;;;;5.65;4.60;;;;;;;;;;5030047;28;20027;-58
2022/07/05 00:40:04;;;;;;;5.45;4.47;;;;;;;;;;5030310;28;20499;-58
2022/07/05 00:42:29;;;;;;;318.63;73.40;;;;;;;;;;5028609;28;20480;-58
2022/07/05 00:44:55;;;;;;;5.32;4.68;;;;;;;;;;5029011;28;20099;-58
2022/07/05 00:47:20;;;;;;;9.50;4.75;;;;;;;;;;5028867;28;20033;-58
2022/07/05 00:49:46;;;;;;;11.48;8.77;;;;;;;;;;5030257;28;20025;-57
2022/07/05 00:52:15;;;;;;;74.68;25.30;;;;;;;;;;5029704;28;20376;-58
2022/07/05 00:54:41;;;;;;;1164.68;532.25;;;;;;;;;;5028011;28;20108;-58
2022/07/05 00:57:10;;;;;;;6.30;5.00;;;;;;;;;;5029718;28;20038;-58
2022/07/05 00:59:35;;;;;;;7.22;5.30;;;;;;;;;;5028387;28;20021;-58
2022/07/05 01:02:04;;;;;;;7.70;5.20;;;;;;;;;;5028491;28;20033;-58
2022/07/05 01:04:29;;;;;;;43.00;7.93;;;;;;;;;;5029921;28;20033;-58
2022/07/05 01:06:55;;;;;;;260.95;32.40;;;;;;;;;;5027234;28;20025;-59
2022/07/05 01:09:23;;;;;;;65.65;13.02;;;;;;;;;;5027885;28;20021;-58
2022/07/05 01:11:50;;;;;;;268.13;37.05;;;;;;;;;;5029167;28;20113;-58
2022/07/05 01:14:23;;;;;;;6.35;5.15;;;;;;;;;;5027823;28;20021;-58
2022/07/05 01:16:50;;;;;;;6.43;5.30;;;;;;;;;;5028022;28;20032;-58
2022/07/05 01:19:17;;;;;;;5.05;4.55;;;;;;;;;;5029562;28;20095;-58
2022/07/05 01:21:44;;;;;;;6.22;5.43;;;;;;;;;;5027328;28;20053;-58
2022/07/05 01:24:14;;;;;;;6.57;5.47;;;;;;;;;;5028983;28;20034;-58
2022/07/05 01:26:41;;;;;;;9.90;5.22;;;;;;;;;;5027455;28;20483;-58
2022/07/05 01:29:08;;;;;;;7.00;5.10;;;;;;;;;;5028485;28;20176;-58
2022/07/05 01:31:37;;;;;;;6.13;4.80;;;;;;;;;;5025804;28;20029;-58
2022/07/05 01:34:02;;;;;;;7.00;5.20;;;;;;;;;;5029705;28;20033;-58
2022/07/05 01:36:28;;;;;;;10.40;4.82;;;;;;;;;;5026855;28;20033;-58
2022/07/05 01:38:53;;;;;;;7.07;5.68;;;;;;;;;;5028380;28;20029;-58
2022/07/05 01:41:18;;;;;;;7.05;5.07;;;;;;;;;;5028601;28;20037;-58
2022/07/05 01:43:44;;;;;;;7.07;5.22;;;;;;;;;;5029413;28;20471;-58
2022/07/05 01:46:12;;;;;;;9.05;5.60;;;;;;;;;;5026839;28;20064;-58
2022/07/05 01:48:39;;;;;;;6.25;5.30;;;;;;;;;;5027760;28;20087;-59
2022/07/05 01:51:09;;;;;;;6.00;5.35;;;;;;;;;;5026390;28;20040;-58
2022/07/05 01:53:38;;;;;;;6.22;5.30;;;;;;;;;;5022930;28;20055;-58
2022/07/05 01:56:04;;;;;;;7.28;5.30;;;;;;;;;;5027529;28;20135;-58
2022/07/05 01:58:30;;;;;;;6.68;4.88;;;;;;;;;;5028531;28;20130;-58
2022/07/05 02:00:57;;;;;;;10.77;5.18;;;;;;;;;;5028189;28;20032;-58
2022/07/05 02:03:26;;;;;;;5.43;4.93;;;;;;;;;;5028102;28;20125;-58
2022/07/05 02:05:52;;;;;;;7.18;5.10;;;;;;;;;;5027348;28;20422;-58
2022/07/05 02:08:18;;;;;;;13.02;5.47;;;;;;;;;;5028113;28;20514;-58
2022/07/05 02:10:44;;;;;;;7.97;5.22;;;;;;;;;;5028793;28;20271;-58
2022/07/05 02:13:10;;;;;;;6.05;5.45;;;;;;;;;;5028543;28;20112;-58
2022/07/05 02:15:38;;;;;;;5.57;5.00;;;;;;;;;;5027490;28;20116;-58
2022/07/05 02:18:05;;;;;;;6.03;5.00;;;;;;;;;;5028013;28;20128;-57
2022/07/05 02:20:32;;;;;;;7.28;5.10;;;;;;;;;;5026309;28;20030;-58
2022/07/05 02:22:58;;;;;;;7.10;4.88;;;;;;;;;;5027380;28;20037;-58
2022/07/05 02:25:24;;;;;;;6.88;5.63;;;;;;;;;;5026780;28;20128;-58
2022/07/05 02:27:50;;;;;;;7.80;4.93;;;;;;;;;;5026404;28;20108;-56
2022/07/05 02:30:16;;;;;;;5.72;5.22;;;;;;;;;;5028974;28;20128;-57
2022/07/05 02:32:41;;;;;;;6.40;5.05;;;;;;;;;;5027950;28;20527;-58
2022/07/05 02:35:09;;;;;;;5.78;5.10;;;;;;;;;;5028124;28;20442;-57
2022/07/05 02:37:35;;;;;;;6.88;5.70;;;;;;;;;;5025453;28;20029;-58
2022/07/05 02:40:00;;;;;;;7.68;5.40;;;;;;;;;;5026531;28;20040;-58
2022/07/05 02:42:26;;;;;;;5.90;5.10;;;;;;;;;;5025768;28;20037;-57
2022/07/05 02:44:51;;;;;;;7.90;5.40;;;;;;;;;;5029179;28;20021;-57
2022/07/05 02:47:17;;;;;;;6.68;5.28;;;;;;;;;;5028056;28;20037;-57
2022/07/05 02:49:42;;;;;;;7.22;5.50;;;;;;;;;;5027924;28;20056;-57
2022/07/05 02:52:07;;;;;;;6.93;5.35;;;;;;;;;;5026246;28;20079;-57
2022/07/05 02:54:36;;;;;;;7.78;5.63;;;;;;;;;;5027702;28;20033;-57
2022/07/05 02:57:01;;;;;;;7.85;5.88;;;;;;;;;;5027435;28;20473;-57
2022/07/05 02:59:27;;;;;;;6.90;6.20;;;;;;;;;;5026179;28;20029;-58
2022/07/05 03:01:52;;;;;;;8.43;6.30;;;;;;;;;;5027156;28;20033;-57
2022/07/05 03:04:18;;;;;;;9.65;6.40;;;;;;;;;;5027432;28;20021;-58
2022/07/05 03:06:44;;;;;;;7.05;5.68;;;;;;;;;;5025745;28;20029;-58
2022/07/05 03:09:10;;;;;;;7.90;5.80;;;;;;;;;;5026107;28;20026;-57
2022/07/05 03:11:35;;;;;;;8.43;6.13;;;;;;;;;;5028530;28;20029;-58
2022/07/05 03:14:01;;;;;;;7.50;6.30;;;;;;;;;;5028133;28;20033;-58
2022/07/05 03:16:26;;;;;;;7.32;5.40;;;;;;;;;;5026446;28;20175;-57
2022/07/05 03:18:52;;;;;;;9.70;6.97;;;;;;;;;;5028373;28;20307;-57
2022/07/05 03:21:17;;;;;;;6.43;5.75;;;;;;;;;;5025488;28;20033;-57
2022/07/05 03:23:43;;;;;;;7.13;5.90;;;;;;;;;;5028420;28;20063;-57
2022/07/05 03:26:08;;;;;;;9.52;5.80;;;;;;;;;;5035206;28;20539;-58
2022/07/05 03:28:34;;;;;;;7.07;5.93;;;;;;;;;;5029359;28;20033;-57
2022/07/05 03:31:00;;;;;;;6.72;5.68;;;;;;;;;;5031554;28;20029;-58
2022/07/05 03:33:26;;;;;;;7.82;5.85;;;;;;;;;;5029920;28;20021;-57
2022/07/05 03:35:54;;;;;;;8.73;5.72;;;;;;;;;;5031523;28;20029;-58
2022/07/05 03:38:20;;;;;;;7.05;5.80;;;;;;;;;;5029816;28;20045;-57
2022/07/05 03:40:45;;;;;;;11.35;7.88;;;;;;;;;;5030632;28;20560;-57
2022/07/05 03:43:11;;;;;;;12.68;8.23;;;;;;;;;;5030056;28;20037;-58
2022/07/05 03:45:36;;;;;;;6.57;5.85;;;;;;;;;;5031286;28;20121;-58
2022/07/05 03:48:01;;;;;;;7.55;5.93;;;;;;;;;;5034364;28;20035;-57
2022/07/05 03:50:27;;;;;;;9.15;5.93;;;;;;;;;;5030352;28;20022;-57
2022/07/05 03:52:53;;;;;;;12.95;6.15;;;;;;;;;;5030645;28;20487;-57
2022/07/05 03:55:19;;;;;;;8.48;5.63;;;;;;;;;;5029353;28;20033;-58
2022/07/05 03:57:45;;;;;;;10.77;6.20;;;;;;;;;;5030876;28;20478;-57
2022/07/05 04:00:11;;;;;;;9.20;5.82;;;;;;;;;;5030245;28;20140;-57
2022/07/05 04:02:37;;;;;;;8.23;6.05;;;;;;;;;;5029877;28;20032;-57
2022/07/05 04:05:02;;;;;;;9.18;5.75;;;;;;;;;;5030316;28;20037;-57
2022/07/05 04:07:28;;;;;;;10.50;5.93;;;;;;;;;;5030735;28;20033;-58
2022/07/05 04:09:53;;;;;;;7.55;6.03;;;;;;;;;;5029291;28;20399;-57
2022/07/05 04:12:19;;;;;;;9.05;5.97;;;;;;;;;;5029895;28;20071;-57
2022/07/05 04:14:44;;;;;;;8.18;6.03;;;;;;;;;;5030475;28;20360;-57
2022/07/05 04:17:09;;;;;;;6.82;5.95;;;;;;;;;;5030049;28;20343;-57
2022/07/05 04:19:35;;;;;;;6.85;5.97;;;;;;;;;;5020930;28;20022;-57
2022/07/05 04:22:00;;;;;;;6.63;5.60;;;;;;;;;;5028691;28;20032;-57
2022/07/05 04:24:26;;;;;;;8.73;6.10;;;;;;;;;;5029532;28;20032;-58
2022/07/05 04:26:51;;;;;;;6.68;5.72;;;;;;;;;;5029114;28;20574;-57
2022/07/05 04:29:16;;;;;;;6.53;5.80;;;;;;;;;;5030248;28;20041;-57
2022/07/05 04:31:42;;;;;;;9.80;6.22;;;;;;;;;;5029077;28;20018;-58
2022/07/05 04:34:08;;;;;;;9.85;5.63;;;;;;;;;;5031740;28;20027;-58
2022/07/05 04:36:33;;;;;;;7.07;5.80;;;;;;;;;;5027659;28;20140;-58
2022/07/05 04:38:58;;;;;;;11.60;6.07;;;;;;;;;;5026310;28;20029;-58
2022/07/05 04:41:24;;;;;;;8.52;5.50;;;;;;;;;;5028471;28;20030;-58
2022/07/05 04:43:49;;;;;;;7.90;5.68;;;;;;;;;;5028951;28;20045;-58
2022/07/05 04:46:15;;;;;;;6.78;5.25;;;;;;;;;;5030962;28;20463;-58
2022/07/05 04:48:40;;;;;;;7.85;5.68;;;;;;;;;;5030289;28;20033;-58
2022/07/05 04:51:06;;;;;;;7.57;5.68;;;;;;;;;;5028446;28;20025;-58
2022/07/05 04:53:31;;;;;;;6.43;5.47;;;;;;;;;;5027781;28;20025;-58
2022/07/05 04:55:56;;;;;;;7.75;5.57;;;;;;;;;;5028456;28;20104;-60
2022/07/05 04:58:22;;;;;;;7.85;5.70;;;;;;;;;;5027653;28;20036;-60
2022/07/05 05:00:47;;;;;;;8.48;5.60;;;;;;;;;;5029197;28;20018;-60
2022/07/05 05:03:13;;;;;;;8.70;6.00;;;;;;;;;;5029404;28;20488;-60
2022/07/05 05:05:38;;;;;;;12.35;5.75;;;;;;;;;;5030514;28;20497;-60
2022/07/05 05:08:04;;;;;;;7.95;5.90;;;;;;;;;;5029518;28;20067;-60
2022/07/05 05:10:29;;;;;;;9.48;5.75;;;;;;;;;;5029272;28;20021;-60
2022/07/05 05:12:54;;;;;;;6.80;5.65;;;;;;;;;;5028085;28;20091;-60
2022/07/05 05:15:21;;;;;;;6.60;5.90;;;;;;;;;;5030293;28;20052;-60
2022/07/05 05:17:46;;;;;;;8.30;5.65;;;;;;;;;;5028621;28;20128;-60
2022/07/05 05:20:15;;;;;;;6.43;5.75;;;;;;;;;;5028907;28;20352;-59
2022/07/05 05:22:41;;;;;;;7.60;6.35;;;;;;;;;;5027877;28;20493;-58
2022/07/05 05:25:08;;;;;;;11.57;6.18;;;;;;;;;;5029988;28;20472;-59
2022/07/05 05:27:33;;;;;;;7.18;6.28;;;;;;;;;;5028517;28;20112;-59
2022/07/05 05:29:59;;;;;;;12.45;6.80;;;;;;;;;;5028617;28;20112;-59
2022/07/05 05:32:24;;;;;;;7.60;6.70;;;;;;;;;;5027760;28;20041;-59
2022/07/05 05:34:50;;;;;;;9.05;6.60;;;;;;;;;;5029218;28;20029;-58
2022/07/05 05:37:15;;;;;;;9.63;6.95;;;;;;;;;;5028617;28;20037;-59
2022/07/05 05:39:40;;;;;;;8.10;6.75;;;;;;;;;;5028253;28;20037;-59
2022/07/05 05:42:06;;;;;;;8.20;5.97;;;;;;;;;;5027576;28;20025;-59
2022/07/05 05:44:31;;;;;;;9.48;6.88;;;;;;;;;;5028906;28;20029;-59
2022/07/05 05:46:57;;;;;;;8.57;6.78;;;;;;;;;;5030652;28;20029;-59
2022/07/05 05:49:22;;;;;;;8.27;6.15;;;;;;;;;;5028885;28;20025;-58
2022/07/05 05:51:48;;;;;;;9.15;6.35;;;;;;;;;;5027781;28;20031;-58
2022/07/05 05:54:13;;;;;;;7.45;5.95;;;;;;;;;;5025875;28;20029;-59
2022/07/05 05:56:38;;;;;;;10.52;6.47;;;;;;;;;;5028381;28;20483;-59
2022/07/05 05:59:04;;;;;;;8.65;6.35;;;;;;;;;;5029077;28;20065;-59
2022/07/05 06:01:30;;;;;;;8.15;6.43;;;;;;;;;;5028039;28;20444;-59
2022/07/05 06:03:55;;;;;;;8.63;6.65;;;;;;;;;;5028044;28;20060;-59
2022/07/05 06:06:20;;;;;;;7.68;5.60;;;;;;;;;;5029064;28;20074;-59
2022/07/05 06:08:46;;;;;;;8.77;5.88;;;;;;;;;;5027975;28;20025;-60
2022/07/05 06:11:13;;;;;;;6.97;5.25;;;;;;;;;;5025735;28;20083;-60
2022/07/05 06:13:39;;;;;;;7.22;5.07;;;;;;;;;;5028464;28;20022;-59
2022/07/05 06:16:06;;;;;;;7.57;4.55;;;;;;;;;;5028455;28;20087;-59
2022/07/05 06:18:31;;;;;;;7.22;4.88;;;;;;;;;;5026191;28;20036;-59
2022/07/05 06:20:57;;;;;;;8.55;4.32;;;;;;;;;;5026901;28;20037;-59
2022/07/05 06:23:22;;;;;;;5.82;4.40;;;;;;;;;;5027806;28;20042;-59
2022/07/05 06:25:48;;;;;;;6.25;3.97;;;;;;;;;;5027360;28;20384;-59
2022/07/05 06:28:13;;;;;;;6.47;4.47;;;;;;;;;;5029271;28;20196;-59
2022/07/05 06:30:39;;;;;;;8.23;4.63;;;;;;;;;;5028184;28;20501;-59
2022/07/05 06:33:05;;;;;;;6.03;4.18;;;;;;;;;;5027032;28;20334;-59
2022/07/05 06:35:31;;;;;;;5.22;4.38;;;;;;;;;;5027266;28;20430;-59
2022/07/05 06:38:02;;;;;;;7.38;4.65;;;;;;;;;;5027032;28;20032;-59
2022/07/05 06:40:29;;;;;;;6.75;4.88;;;;;;;;;;5027152;28;20025;-59
2022/07/05 06:42:57;;;;;;;5.32;4.70;;;;;;;;;;5028139;28;20285;-59
2022/07/05 06:45:23;;;;;;;6.40;4.90;;;;;;;;;;5027775;28;20124;-59
2022/07/05 06:47:55;;;;;;;8.98;4.50;;;;;;;;;;5028921;28;20036;-59
2022/07/05 06:50:21;;;;;;;5.82;4.90;;;;;;;;;;5028542;28;20117;-60
2022/07/05 06:52:46;;;;;;;4.82;4.30;;;;;;;;;;5027786;28;20127;-59
2022/07/05 06:55:11;;;;;;;6.47;4.53;;;;;;;;;;5026561;28;20036;-59
2022/07/05 06:57:37;;;;;;;5.85;4.28;;;;;;;;;;5028628;28;20025;-59
2022/07/05 07:00:04;;;;;;;5.07;4.35;;;;;;;;;;5030264;28;20506;-59
2022/07/05 07:02:29;;;;;;;6.60;4.35;;;;;;;;;;5031630;28;20080;-59
2022/07/05 07:04:55;;;;;;;5.45;4.38;;;;;;;;;;5032399;28;20045;-59
2022/07/05 07:10:05;;;;;;;9.55;4.30;;;;;;;;;;5027902;28;20072;-59
2022/07/05 07:12:30;;;;;;;5.10;4.35;;;;;;;;;;5031450;28;20490;-59
2022/07/05 07:14:56;;;;;;;4.55;4.07;;;;;;;;;;5031847;28;20018;-59
2022/07/05 07:17:22;;;;;;;5.60;4.50;;;;;;;;;;5026851;28;20029;-59
2022/07/05 07:19:48;;;;;;;5.55;4.50;;;;;;;;;;5026164;28;20327;-59
2022/07/05 07:22:13;;;;;;;5.28;4.50;;;;;;;;;;5031055;28;20613;-60
2022/07/05 07:24:39;;;;;;;5.60;3.80;;;;;;;;;;5031129;28;20029;-60
2022/07/05 07:27:04;;;;;;;6.43;4.43;;;;;;;;;;5033402;28;20029;-59
2022/07/05 07:29:31;;;;;;;7.40;4.22;;;;;;;;;;5029722;28;20109;-59
2022/07/05 07:31:57;;;;;;;7.57;4.30;;;;;;;;;;5031584;28;20013;-59
2022/07/05 07:34:24;;;;;;;6.28;4.35;;;;;;;;;;5028653;28;20029;-59
2022/07/05 07:36:49;;;;;;;4.53;3.85;;;;;;;;;;5032768;28;20052;-60
2022/07/05 07:39:15;;;;;;;5.00;4.60;;;;;;;;;;5031181;28;20033;-59
2022/07/05 07:41:40;;;;;;;521.08;58.50;;;;;;;;;;5030861;28;20021;-59
2022/07/05 07:44:06;;;;;;;6.70;4.40;;;;;;;;;;5031942;28;20041;-59
2022/07/05 07:46:32;;;;;;;6.93;4.72;;;;;;;;;;5030412;28;20399;-59
2022/07/05 07:48:57;;;;;;;5.45;3.97;;;;;;;;;;5031974;28;20123;-59
2022/07/05 07:51:23;;;;;;;4.20;3.80;;;;;;;;;;5028859;28;20395;-59
2022/07/05 07:53:48;;;;;;;7.20;4.30;;;;;;;;;;5030116;28;20032;-59
2022/07/05 07:56:14;;;;;;;5.63;4.00;;;;;;;;;;5028665;28;20056;-59
2022/07/05 07:58:39;;;;;;;4.70;3.75;;;;;;;;;;5030359;28;20105;-59
2022/07/05 08:01:10;;;;;;;4.55;3.83;;;;;;;;;;5029272;28;20025;-59
2022/07/05 08:03:39;;;;;;;4.93;3.70;;;;;;;;;;5028504;28;20026;-59
2022/07/05 08:06:04;;;;;;;4.77;3.73;;;;;;;;;;5028577;28;20392;-59
2022/07/05 08:08:30;;;;;;;5.68;4.20;;;;;;;;;;5030240;28;20041;-59
2022/07/05 08:10:55;;;;;;;6.97;4.00;;;;;;;;;;5029229;28;20021;-59
2022/07/05 08:13:21;;;;;;;7.85;4.28;;;;;;;;;;5029404;28;20076;-59
2022/07/05 08:15:46;;;;;;;5.65;3.65;;;;;;;;;;5027473;28;20021;-59
2022/07/05 08:23:39;;;;;;;5.15;4.07;;;;;;;;;;5028520;28;20064;-59
2022/07/05 08:26:05;;;;;;;6.82;4.43;;;;;;;;;;5029395;28;20419;-59
2022/07/05 08:28:30;;;;;;;9.07;4.22;;;;;;;;;;5028466;28;20036;-59
2022/07/05 08:30:56;;;;;;;5.43;4.20;;;;;;;;;;5027763;28;20022;-59
2022/07/05 08:33:21;;;;;;;7.43;4.38;;;;;;;;;;5028144;28;20435;-60
2022/07/05 08:35:46;;;;;;;6.03;4.35;;;;;;;;;;5029648;28;20112;-60
2022/07/05 08:38:12;;;;;;;8.40;3.78;;;;;;;;;;5028567;28;20040;-60
2022/07/05 08:40:43;;;;;;;5.85;4.35;;;;;;;;;;5029302;28;20029;-60
2022/07/05 08:43:09;;;;;;;5.05;4.47;;;;;;;;;;5029139;28;20128;-60
2022/07/05 08:45:37;;;;;;;5.40;4.20;;;;;;;;;;5029014;28;20032;-60
2022/07/05 08:48:03;;;;;;;9.10;4.75;;;;;;;;;;5026336;28;20065;-59
2022/07/05 08:50:30;;;;;;;7.82;4.43;;;;;;;;;;4988062;28;1156963;-59
2022/07/05 08:52:56;;;;;;;8.88;4.25;;;;;;;;;;5029434;28;20432;-59
2022/07/05 08:55:22;;;;;;;8.25;4.50;;;;;;;;;;5028788;28;20179;-59
2022/07/05 08:57:48;;;;;;;7.65;4.22;;;;;;;;;;5031315;28;20105;-59
2022/07/05 09:00:14;;;;;;;6.70;3.88;;;;;;;;;;5028865;28;20068;-60
2022/07/05 09:02:39;;;;;;;6.75;4.20;;;;;;;;;;5029588;28;20029;-59
2022/07/05 09:05:05;;;;;;;7.45;4.50;;;;;;;;;;5028324;28;20026;-59
2022/07/05 09:07:34;;;;;;;6.50;4.40;;;;;;;;;;5030769;28;20045;-60
2022/07/05 09:10:02;;;;;;;6.78;4.80;;;;;;;;;;5029499;28;20033;-59
2022/07/05 09:12:27;;;;;;;6.30;4.45;;;;;;;;;;5029665;28;20533;-59
2022/07/05 09:14:54;;;;;;;6.18;4.30;;;;;;;;;;5027884;28;20030;-59
2022/07/05 09:17:19;;;;;;;6.15;4.13;;;;;;;;;;5028941;28;20536;-60
2022/07/05 09:20:05;;;;;;;6.00;4.13;;;;;;;;;;5029965;28;20017;-59
2022/07/05 09:22:49;;;;;;;11.82;4.32;;;;;;;;;;5027934;28;20040;-59
2022/07/05 09:25:32;;;;;;;7.88;4.20;;;;;;;;;;5029938;28;20060;-59
2022/07/05 09:28:04;;;;;;;8.98;4.00;;;;;;;;;;5029105;28;20033;-58
2022/07/05 09:30:41;;;;;;;342.65;45.55;;;;;;;;;;5028638;28;20028;-57
2022/07/05 09:33:15;;;;;;;8.15;4.30;;;;;;;;;;5030014;28;20699;-58
2022/07/05 09:35:42;;;;;;;5.13;3.97;;;;;;;;;;5020046;28;20108;-57
2022/07/05 09:38:22;;;;;;;4.78;4.00;;;;;;;;;;5029242;28;20045;-58
2022/07/05 09:40:51;;;;;;;5.47;3.95;;;;;;;;;;5029708;28;20543;-57
2022/07/05 09:43:19;;;;;;;6.90;4.28;;;;;;;;;;5027056;28;20716;-57
2022/07/05 09:45:52;;;;;;;6.15;4.38;;;;;;;;;;5028349;28;20057;-57
2022/07/05 09:48:18;;;;;;;6.05;3.80;;;;;;;;;;5028666;28;20109;-57
2022/07/05 09:50:43;;;;;;;6.38;3.65;;;;;;;;;;5029105;28;20049;-58
2022/07/05 09:53:11;;;;;;;8.40;4.35;;;;;;;;;;5025861;28;20524;-57
2022/07/05 09:55:37;;;;;;;7.38;4.10;;;;;;;;;;5022908;28;20399;-58
2022/07/05 09:58:02;;;;;;;7.72;3.72;;;;;;;;;;5028356;28;20040;-57
2022/07/05 10:00:29;;;;;;;243.00;59.33;;;;;;;;;;5029532;28;20455;-57
2022/07/05 10:03:02;;;;;;;406.30;43.22;;;;;;;;;;5026801;28;20113;-57
2022/07/05 10:05:30;;;;;;;4.53;3.70;;;;;;;;;;5028613;28;20601;-58
2022/07/05 10:07:57;;;;;;;6.22;3.80;;;;;;;;;;5028014;28;20053;-58
2022/07/05 10:10:24;;;;;;;5.63;3.70;;;;;;;;;;5028839;28;20021;-57
2022/07/05 10:12:51;;;;;;;9.60;3.90;;;;;;;;;;5027305;28;20052;-58
2022/07/05 10:15:21;;;;;;;6.68;3.60;;;;;;;;;;5027016;28;20440;-58
2022/07/05 10:17:56;;;;;;;4.78;3.38;;;;;;;;;;5026474;28;20259;-57
2022/07/05 10:20:37;;;;;;;7.60;3.40;;;;;;;;;;5027477;28;20029;-58
2022/07/05 10:23:03;;;;;;;6.07;3.03;;;;;;;;;;5026436;28;20491;-57
2022/07/05 10:25:28;;;;;;;216.32;54.85;;;;;;;;;;5026523;28;20033;-57
2022/07/05 10:27:55;;;;;;;7.30;3.10;;;;;;;;;;5028220;28;20059;-57
2022/07/05 10:30:22;;;;;;;23.05;4.78;;;;;;;;;;5028885;28;20030;-57
2022/07/05 10:32:48;;;;;;;139.30;8.07;;;;;;;;;;5027713;28;20029;-57
2022/07/05 10:35:15;;;;;;;54.05;5.05;;;;;;;;;;5023832;28;20025;-57
2022/07/05 10:37:41;;;;;;;3.50;2.97;;;;;;;;;;5027022;28;20025;-57
2022/07/05 10:40:07;;;;;;;795.08;57.55;;;;;;;;;;5028231;28;20032;-57
2022/07/05 10:42:39;;;;;;;4.63;2.50;;;;;;;;;;5027301;28;20104;-57
2022/07/05 10:45:21;;;;;;;4.18;2.70;;;;;;;;;;5026885;28;20021;-57
2022/07/05 10:48:09;;;;;;;3.55;2.50;;;;;;;;;;5026226;28;20112;-57
2022/07/05 10:50:48;;;;;;;5.32;2.65;;;;;;;;;;5027365;28;20553;-57
2022/07/05 10:53:15;;;;;;;6.97;2.40;;;;;;;;;;5025558;28;20064;-57
2022/07/05 10:56:06;;;;;;;9.88;2.70;;;;;;;;;;5029251;28;20101;-57
2022/07/05 10:58:38;;;;;;;410.40;41.20;;;;;;;;;;5028456;28;20040;-57
2022/07/05 11:01:12;;;;;;;2.90;2.53;;;;;;;;;;5025875;28;20514;-57
2022/07/05 11:03:42;;;;;;;3.75;2.42;;;;;;;;;;5028473;28;20446;-57
2022/07/05 11:06:18;;;;;;;6.78;2.65;;;;;;;;;;5027486;28;20025;-58
2022/07/05 11:08:59;;;;;;;2.70;2.50;;;;;;;;;;5023318;28;20499;-57
2022/07/05 11:11:27;;;;;;;4.20;2.58;;;;;;;;;;5025665;28;20036;-57
2022/07/05 11:13:55;;;;;;;5.68;2.78;;;;;;;;;;5028644;28;20021;-58
2022/07/05 11:16:24;;;;;;;3.67;2.40;;;;;;;;;;5026739;28;20057;-57
2022/07/05 11:19:10;;;;;;;5.20;2.78;;;;;;;;;;5026686;28;20105;-57
2022/07/05 11:21:38;;;;;;;5.57;2.70;;;;;;;;;;5026111;28;20046;-57
2022/07/05 11:24:23;;;;;;;232.30;18.60;;;;;;;;;;5026853;28;20036;-59
2022/07/05 11:26:52;;;;;;;694.20;56.35;;;;;;;;;;5027616;28;20034;-57
2022/07/05 11:29:36;;;;;;;;;;;;;;;;;;5027337;28;20044;-57
2022/07/05 11:32:05;;;;;;;4.68;2.63;;;;;;;;;;5025507;28;20005;-57
2022/07/05 11:34:35;;;;;;;8.10;2.55;;;;;;;;;;5026355;28;20029;-57
2022/07/05 11:37:18;;;;;;;5.68;2.80;;;;;;;;;;5029381;28;20033;-58
2022/07/05 11:39:45;;;;;;;4.50;2.60;;;;;;;;;;5021534;28;20271;-57
2022/07/05 11:42:19;;;;;;;525.53;51.60;;;;;;;;;;5026760;28;20037;-58
2022/07/05 11:44:50;;;;;;;5.68;3.05;;;;;;;;;;5031176;28;20056;-57
2022/07/05 11:47:16;;;;;;;4.28;2.70;;;;;;;;;;5029070;28;20380;-56
2022/07/05 11:49:58;;;;;;;133.00;13.60;;;;;;;;;;5031587;28;20036;-57
2022/07/05 11:52:28;;;;;;;4.00;2.20;;;;;;;;;;5029873;28;20032;-58
2022/07/05 11:54:54;;;;;;;3.60;2.20;;;;;;;;;;5029453;28;20052;-57
2022/07/05 11:57:20;;;;;;;3.78;2.17;;;;;;;;;;5031285;28;20080;-57
2022/07/05 11:59:46;;;;;;;5.00;2.30;;;;;;;;;;5030632;28;20092;-57
2022/07/05 12:02:12;;;;;;;4.22;2.13;;;;;;;;;;5029089;28;20179;-57
2022/07/05 12:04:37;;;;;;;4.38;1.92;;;;;;;;;;5028189;28;20111;-58
2022/07/05 12:07:03;;;;;;;4.40;1.90;;;;;;;;;;5029325;28;20083;-58
2022/07/05 12:15:14;;;;;;;563.33;49.28;;;;;;;;;;5027252;28;20036;-58
2022/07/05 12:17:42;;;;;;;5.22;1.90;;;;;;;;;;5030465;28;20041;-57
2022/07/05 12:20:11;;;;;;;5.17;2.60;;;;;;;;;;5032679;28;20495;-57
2022/07/05 12:22:44;;;;;;;3.50;1.90;;;;;;;;;;5022844;28;20033;-57
2022/07/05 12:25:17;;;;;;;4.80;1.92;;;;;;;;;;5029498;28;20172;-57
2022/07/05 12:27:45;;;;;;;3.38;2.03;;;;;;;;;;5029402;28;20440;-57
2022/07/05 12:30:12;;;;;;;3.80;2.00;;;;;;;;;;5031703;28;20037;-57
2022/07/05 12:32:53;;;;;;;3.40;1.88;;;;;;;;;;5030454;28;20033;-56
2022/07/05 12:35:34;;;;;;;3.83;1.92;;;;;;;;;;5030889;28;20124;-56
2022/07/05 12:38:06;;;;;;;2.67;2.00;;;;;;;;;;5031292;28;20044;-57
2022/07/05 12:40:49;;;;;;;2.15;1.95;;;;;;;;;;5030109;28;20025;-58
2022/07/05 12:43:16;;;;;;;603.75;69.00;;;;;;;;;;5029787;28;20025;-58
2022/07/05 12:45:44;;;;;;;5.97;1.77;;;;;;;;;;5030274;28;20029;-57
2022/07/05 12:48:11;;;;;;;3.08;1.55;;;;;;;;;;5028938;28;20034;-57
2022/07/05 12:50:50;;;;;;;2.63;1.60;;;;;;;;;;5030329;28;20026;-57
2022/07/05 12:58:49;;;;;;;3.78;1.63;;;;;;;;;;5029068;28;20072;-60
2022/07/05 13:01:31;;;;;;;2.40;1.90;;;;;;;;;;5026547;28;20535;-56
2022/07/05 13:03:58;;;;;;;6.35;1.83;;;;;;;;;;5029236;28;20472;-56
2022/07/05 13:06:23;;;;;;;2.45;1.60;;;;;;;;;;5030157;28;20471;-56
2022/07/05 13:08:58;;;;;;;2.53;1.70;;;;;;;;;;5030140;28;20033;-56
2022/07/05 13:11:30;;;;;;;1.77;1.50;;;;;;;;;;5028181;28;20104;-56
2022/07/05 13:13:55;;;;;;;2.55;1.63;;;;;;;;;;5029915;28;20025;-56
2022/07/05 13:16:21;;;;;;;3.80;1.85;;;;;;;;;;5027995;28;20113;-55
2022/07/05 13:18:46;;;;;;;1.60;1.50;;;;;;;;;;5028930;28;20080;-56
2022/07/05 13:21:12;;;;;;;2.03;1.60;;;;;;;;;;5027194;28;20076;-56
2022/07/05 13:23:37;;;;;;;5.30;1.92;;;;;;;;;;5029698;28;20087;-55
2022/07/05 13:26:02;;;;;;;3.67;1.70;;;;;;;;;;5028311;28;20029;-56
2022/07/05 13:28:28;;;;;;;5.82;2.00;;;;;;;;;;5028556;28;20030;-56
2022/07/05 13:30:53;;;;;;;3.42;1.70;;;;;;;;;;5030177;28;20029;-61
2022/07/05 13:33:19;;;;;;;7.55;1.73;;;;;;;;;;5029129;28;20059;-61
2022/07/05 13:35:44;;;;;;;2.55;1.60;;;;;;;;;;5030112;28;20091;-61
2022/07/05 13:38:09;;;;;;;6.20;1.60;;;;;;;;;;5028511;28;20045;-61
2022/07/05 13:40:35;;;;;;;1.92;1.50;;;;;;;;;;5028876;28;20026;-62
2022/07/05 13:43:00;;;;;;;3.25;1.83;;;;;;;;;;5029355;28;20707;-60
2022/07/05 13:45:26;;;;;;;1.90;1.60;;;;;;;;;;5029141;28;20071;-62
2022/07/05 13:47:51;;;;;;;3.92;1.65;;;;;;;;;;5029342;28;20029;-61
2022/07/05 13:50:31;;;;;;;2.13;1.50;;;;;;;;;;5027537;28;20036;-60
2022/07/05 13:52:58;;;;;;;3.30;2.00;;;;;;;;;;5028111;28;20534;-61
2022/07/05 13:55:23;;;;;;;3.53;1.48;;;;;;;;;;5027239;28;20485;-60
2022/07/05 13:57:49;;;;;;;3.65;1.35;;;;;;;;;;5024918;28;20108;-61
2022/07/05 14:00:15;;;;;;;4.97;1.70;;;;;;;;;;5025847;28;20033;-61
2022/07/05 14:02:40;;;;;;;5.28;1.60;;;;;;;;;;5029975;28;20025;-61
2022/07/05 14:05:06;;;;;;;2.58;1.77;;;;;;;;;;5028898;28;20060;-61
2022/07/05 14:07:31;;;;;;;1.80;1.48;;;;;;;;;;5028148;28;20029;-60
2022/07/05 14:09:56;;;;;;;3.03;1.48;;;;;;;;;;5026741;28;20042;-61
2022/07/05 14:12:22;;;;;;;2.53;1.63;;;;;;;;;;5027766;28;20029;-60
2022/07/05 14:14:47;;;;;;;5.20;1.60;;;;;;;;;;5028564;28;20075;-61
2022/07/05 14:17:13;;;;;;;2.70;1.70;;;;;;;;;;5029460;28;20055;-61
2022/07/05 14:19:38;;;;;;;5.80;1.75;;;;;;;;;;5027625;28;20399;-61
2022/07/05 14:22:04;;;;;;;3.17;1.83;;;;;;;;;;5026605;28;20030;-61
2022/07/05 14:24:29;;;;;;;3.58;1.70;;;;;;;;;;5027307;28;20553;-61
2022/07/05 14:26:54;;;;;;;6.25;1.70;;;;;;;;;;5028324;28;20056;-61
2022/07/05 14:29:20;;;;;;;3.17;1.80;;;;;;;;;;5026917;28;20067;-61
2022/07/05 14:31:45;;;;;;;4.05;1.55;;;;;;;;;;5028561;28;20391;-62
2022/07/05 14:34:10;;;;;;;3.30;1.67;;;;;;;;;;5032918;28;20040;-61
2022/07/05 14:36:36;;;;;;;2.45;1.85;;;;;;;;;;5028718;28;20030;-61
2022/07/05 14:39:01;;;;;;;2.10;1.90;;;;;;;;;;5029408;28;20099;-61
2022/07/05 14:41:28;;;;;;;3.60;1.75;;;;;;;;;;5025472;28;20136;-60
2022/07/05 14:43:53;;;;;;;2.92;1.80;;;;;;;;;;5029248;28;20056;-60
2022/07/05 14:46:20;;;;;;;4.30;1.80;;;;;;;;;;5028251;28;20072;-62
2022/07/05 14:48:46;;;;;;;4.25;1.70;;;;;;;;;;5026679;28;20056;-61
2022/07/05 14:51:11;;;;;;;2.35;1.80;;;;;;;;;;5027370;28;20495;-61
2022/07/05 14:53:37;;;;;;;2.42;1.70;;;;;;;;;;5029227;28;20029;-60
2022/07/05 14:56:02;;;;;;;3.55;1.60;;;;;;;;;;5028272;28;20041;-61
2022/07/05 14:58:31;;;;;;;4.20;1.50;;;;;;;;;;5028343;28;20030;-61
2022/07/05 15:01:00;;;;;;;3.90;1.67;;;;;;;;;;5026841;28;20025;-60